Time;durP1;ratioP1;P1;durP2;ratioP2;P2;SDS_P1;SDS_P2;PMS_P1;PMS_P2;Temp;Humidity;BMP_temperature;BMP_pressure;BME280_temperature;BME280_humidity;BME280_pressure;Samples;Min_cycle;Max_cycle;Signal;HPM_P1;HPM_P2
2023/07/19 00:01:06;;;;;;;;;;;;;;;;;;4971660;28;8520;-90
2023/07/19 00:03:32;;;;;;;;;;;;;;;;;;4971809;28;8911;-81
2023/07/19 00:06:00;;;;;;;;;;;;;;;;;;4971614;28;8570;-85
2023/07/19 00:08:25;;;;;;;;;;;;;;;;;;4971804;28;7529;-84
2023/07/19 00:10:51;;;;;;;;;;;;;;;;;;4971774;28;7330;-84
2023/07/19 00:13:17;;;;;;;;;;;;;;;;;;4971637;28;7129;-84
2023/07/19 00:15:42;;;;;;;;;;;;;;;;;;4971665;28;7149;-84
2023/07/19 00:18:08;;;;;;;;;;;;;;;;;;4971194;28;8554;-85
2023/07/19 00:20:33;;;;;;;;;;;;;;;;;;4971600;28;7233;-84
2023/07/19 00:22:59;;;;;;;;;;;;;;;;;;4971453;28;8546;-84
2023/07/19 00:25:25;;;;;;;;;;;;;;;;;;4970693;28;8791;-84
2023/07/19 00:27:50;;;;;;;;;;;;;;;;;;4971405;28;7257;-84
2023/07/19 00:30:16;;;;;;;;;;;;;;;;;;4971641;28;7279;-84
2023/07/19 00:32:41;;;;;;;;;;;;;;;;;;4971152;28;8771;-84
2023/07/19 00:35:07;;;;;;;;;;;;;;;;;;4970870;28;7078;-84
2023/07/19 00:37:32;;;;;;;;;;;;;;;;;;4971286;28;8481;-84
2023/07/19 00:39:58;;;;;;;;;;;;;;;;;;4971330;28;8687;-85
2023/07/19 00:42:24;;;;;;;;;;;;;;;;;;4971225;28;7307;-85
2023/07/19 00:44:50;;;;;;;;;;;;;;;;;;4971022;28;8523;-85
2023/07/19 00:47:16;;;;;;;;;;;;;;;;;;4971012;28;8556;-83
2023/07/19 00:49:44;;;;;;;;;;;;;;;;;;4970884;28;7214;-83
2023/07/19 00:52:10;;;;;;;;;;;;;;;;;;4970935;28;7276;-83
2023/07/19 00:54:36;;;;;;;;;;;;;;;;;;4970887;28;8838;-83
2023/07/19 00:57:03;;;;;;;;;;;;;;;;;;4971192;28;8554;-84
2023/07/19 00:59:29;;;;;;;;;;;;;;;;;;4970553;28;8528;-84
2023/07/19 01:01:55;;;;;;;;;;;;;;;;;;4970920;28;8829;-84
2023/07/19 01:04:24;;;;;;;;;;;;;;;;;;4970685;28;8605;-85
2023/07/19 01:06:50;;;;;;;;;;;;;;;;;;4970662;28;9217;-84
2023/07/19 01:09:15;;;;;;;;;;;;;;;;;;4970437;28;7270;-84
2023/07/19 01:11:41;;;;;;;;;;;;;;;;;;4970464;28;7124;-83
2023/07/19 01:14:07;;;;;;;;;;;;;;;;;;4970670;28;7285;-83
2023/07/19 01:16:33;;;;;;;;;;;;;;;;;;4970377;28;8824;-85
2023/07/19 01:18:59;;;;;;;;;;;;;;;;;;4970252;28;8608;-84
2023/07/19 01:21:25;;;;;;;;;;;;;;;;;;4970258;28;8533;-84
2023/07/19 01:23:50;;;;;;;;;;;;;;;;;;4970365;28;8514;-84
2023/07/19 01:26:17;;;;;;;;;;;;;;;;;;4970765;28;7139;-84
2023/07/19 01:28:42;;;;;;;;;;;;;;;;;;4970100;28;8601;-84
2023/07/19 01:31:11;;;;;;;;;;;;;;;;;;4970721;28;8892;-85
2023/07/19 01:33:37;;;;;;;;;;;;;;;;;;4969985;28;7166;-83
2023/07/19 01:36:03;;;;;;;;;;;;;;;;;;4970000;28;8520;-84
2023/07/19 01:38:28;;;;;;;;;;;;;;;;;;4969929;28;7728;-83
2023/07/19 01:40:55;;;;;;;;;;;;;;;;;;4970301;28;8914;-83
2023/07/19 01:43:20;;;;;;;;;;;;;;;;;;4969989;28;7372;-84
2023/07/19 01:45:46;;;;;;;;;;;;;;;;;;4962771;28;8613;-84
2023/07/19 01:48:11;;;;;;;;;;;;;;;;;;4946408;28;8752;-87
2023/07/19 01:50:36;;;;;;;;;;;;;;;;;;4941147;28;7408;-86
2023/07/19 01:53:02;;;;;;;;;;;;;;;;;;4958763;28;8660;-86
2023/07/19 01:55:28;;;;;;;;;;;;;;;;;;4938753;28;8098;-86
2023/07/19 01:57:53;;;;;;;;;;;;;;;;;;4958590;28;8526;-84
2023/07/19 02:00:19;;;;;;;;;;;;;;;;;;4970671;28;7223;-85
2023/07/19 02:02:44;;;;;;;;;;;;;;;;;;4970802;28;7419;-84
2023/07/19 02:05:10;;;;;;;;;;;;;;;;;;4970644;28;8793;-85
2023/07/19 02:07:35;;;;;;;;;;;;;;;;;;4958944;28;8579;-85
2023/07/19 02:10:01;;;;;;;;;;;;;;;;;;4943616;29;8527;-84
2023/07/19 02:12:27;;;;;;;;;;;;;;;;;;4934484;29;8571;-83
2023/07/19 02:14:55;;;;;;;;;;;;;;;;;;4941054;29;8548;-83
2023/07/19 02:17:21;;;;;;;;;;;;;;;;;;4948298;29;8542;-84
2023/07/19 02:19:47;;;;;;;;;;;;;;;;;;4941211;29;8545;-84
2023/07/19 02:22:15;;;;;;;;;;;;;;;;;;4966021;28;7070;-85
2023/07/19 02:24:41;;;;;;;;;;;;;;;;;;4970916;28;7333;-83
2023/07/19 02:27:07;;;;;;;;;;;;;;;;;;4970771;28;8495;-84
2023/07/19 02:29:32;;;;;;;;;;;;;;;;;;4970289;28;8777;-84
2023/07/19 02:31:57;;;;;;;;;;;;;;;;;;4970898;28;8745;-85
2023/07/19 02:34:23;;;;;;;;;;;;;;;;;;4970037;28;8493;-84
2023/07/19 02:36:49;;;;;;;;;;;;;;;;;;4970536;28;8793;-85
2023/07/19 02:39:14;;;;;;;;;;;;;;;;;;4970549;28;8452;-84
2023/07/19 02:41:40;;;;;;;;;;;;;;;;;;4970567;28;9317;-84
2023/07/19 02:44:05;;;;;;;;;;;;;;;;;;4970806;28;7193;-85
2023/07/19 02:46:31;;;;;;;;;;;;;;;;;;4970451;28;7111;-83
2023/07/19 02:48:57;;;;;;;;;;;;;;;;;;4965693;28;7320;-84
2023/07/19 02:51:22;;;;;;;;;;;;;;;;;;4974175;28;8605;-84
2023/07/19 02:53:48;;;;;;;;;;;;;;;;;;4973769;28;7227;-84
2023/07/19 02:56:14;;;;;;;;;;;;;;;;;;4973787;28;8510;-84
2023/07/19 02:58:39;;;;;;;;;;;;;;;;;;4958742;28;7291;-84
2023/07/19 03:01:05;;;;;;;;;;;;;;;;;;4973780;28;8492;-84
2023/07/19 03:03:31;;;;;;;;;;;;;;;;;;4973739;28;8855;-84
2023/07/19 03:05:56;;;;;;;;;;;;;;;;;;4973641;28;8821;-84
2023/07/19 03:08:22;;;;;;;;;;;;;;;;;;4973693;28;8508;-84
2023/07/19 03:10:51;;;;;;;;;;;;;;;;;;4973703;28;8520;-84
2023/07/19 03:13:17;;;;;;;;;;;;;;;;;;4973573;28;8577;-84
2023/07/19 03:15:45;;;;;;;;;;;;;;;;;;4973272;28;8486;-84
2023/07/19 03:18:10;;;;;;;;;;;;;;;;;;4973312;28;8835;-85
2023/07/19 03:20:36;;;;;;;;;;;;;;;;;;4973355;28;7268;-85
2023/07/19 03:23:01;;;;;;;;;;;;;;;;;;4973603;28;8582;-84
2023/07/19 03:25:28;;;;;;;;;;;;;;;;;;4973490;28;7259;-84
2023/07/19 03:27:54;;;;;;;;;;;;;;;;;;4973529;28;7223;-85
2023/07/19 03:30:21;;;;;;;;;;;;;;;;;;4973269;28;8517;-86
2023/07/19 03:32:47;;;;;;;;;;;;;;;;;;4973170;28;7152;-86
2023/07/19 03:35:13;;;;;;;;;;;;;;;;;;4973032;28;8555;-86
2023/07/19 03:37:44;;;;;;;;;;;;;;;;;;4973194;28;8509;-86
2023/07/19 03:40:10;;;;;;;;;;;;;;;;;;4973158;28;8642;-86
2023/07/19 03:42:36;;;;;;;;;;;;;;;;;;4973483;28;9078;-88
2023/07/19 03:45:02;;;;;;;;;;;;;;;;;;4973193;28;7487;-89
2023/07/19 03:47:27;;;;;;;;;;;;;;;;;;4966791;28;8504;-85
2023/07/19 03:49:52;;;;;;;;;;;;;;;;;;4943074;28;8699;-84
2023/07/19 03:52:18;;;;;;;;;;;;;;;;;;4942076;28;7137;-85
2023/07/19 03:54:43;;;;;;;;;;;;;;;;;;4943129;28;8527;-85
2023/07/19 03:57:09;;;;;;;;;;;;;;;;;;4956519;28;8557;-86
2023/07/19 03:59:34;;;;;;;;;;;;;;;;;;4942566;28;8486;-86
2023/07/19 04:02:03;;;;;;;;;;;;;;;;;;4942580;28;8484;-87
2023/07/19 04:04:29;;;;;;;;;;;;;;;;;;4963470;28;6947;-86
2023/07/19 04:06:55;;;;;;;;;;;;;;;;;;4961228;28;7124;-86
2023/07/19 04:09:21;;;;;;;;;;;;;;;;;;4945500;28;8926;-86
2023/07/19 04:11:47;;;;;;;;;;;;;;;;;;4971308;28;7251;-86
2023/07/19 04:14:12;;;;;;;;;;;;;;;;;;4971676;28;8522;-87
2023/07/19 04:16:37;;;;;;;;;;;;;;;;;;4971442;28;8857;-87
2023/07/19 04:19:03;;;;;;;;;;;;;;;;;;4971188;28;8752;-85
2023/07/19 04:21:28;;;;;;;;;;;;;;;;;;4971754;28;8489;-85
2023/07/19 04:23:54;;;;;;;;;;;;;;;;;;4971566;28;8602;-85
2023/07/19 04:26:19;;;;;;;;;;;;;;;;;;4970961;28;8532;-85
2023/07/19 04:28:44;;;;;;;;;;;;;;;;;;4971627;28;8702;-82
2023/07/19 04:31:10;;;;;;;;;;;;;;;;;;4956176;28;7133;-85
2023/07/19 04:33:37;;;;;;;;;;;;;;;;;;4947160;28;7208;-81
2023/07/19 04:36:16;;;;;;;;;;;;;;;;;;4947599;28;7288;-85
2023/07/19 04:38:42;;;;;;;;;;;;;;;;;;4934178;29;8514;-85
2023/07/19 04:41:09;;;;;;;;;;;;;;;;;;4934891;29;7239;-85
2023/07/19 04:43:35;;;;;;;;;;;;;;;;;;4936169;29;7295;-85
2023/07/19 04:46:01;;;;;;;;;;;;;;;;;;4935730;29;8532;-85
2023/07/19 04:48:27;;;;;;;;;;;;;;;;;;4935627;29;8473;-85
2023/07/19 04:50:53;;;;;;;;;;;;;;;;;;4935574;29;7435;-85
2023/07/19 04:53:21;;;;;;;;;;;;;;;;;;4935257;29;7285;-85
2023/07/19 04:55:48;;;;;;;;;;;;;;;;;;4936141;28;7273;-85
2023/07/19 04:58:14;;;;;;;;;;;;;;;;;;4942583;28;6944;-84
2023/07/19 05:00:39;;;;;;;;;;;;;;;;;;4937926;28;7178;-83
2023/07/19 05:03:05;;;;;;;;;;;;;;;;;;4967015;28;7437;-83
2023/07/19 05:05:30;;;;;;;;;;;;;;;;;;4971308;28;8587;-85
2023/07/19 05:07:56;;;;;;;;;;;;;;;;;;4944647;28;7114;-85
2023/07/19 05:10:21;;;;;;;;;;;;;;;;;;4964656;28;7141;-84
2023/07/19 05:12:47;;;;;;;;;;;;;;;;;;4954398;28;7271;-84
2023/07/19 05:15:12;;;;;;;;;;;;;;;;;;4954605;28;7122;-84
2023/07/19 05:17:38;;;;;;;;;;;;;;;;;;4954304;28;8652;-85
2023/07/19 05:20:05;;;;;;;;;;;;;;;;;;4954459;28;8676;-84
2023/07/19 05:22:31;;;;;;;;;;;;;;;;;;4954160;28;7114;-84
2023/07/19 05:24:57;;;;;;;;;;;;;;;;;;4954192;28;8877;-84
2023/07/19 05:27:24;;;;;;;;;;;;;;;;;;4954013;28;8482;-84
2023/07/19 05:29:49;;;;;;;;;;;;;;;;;;4954117;28;8848;-85
2023/07/19 05:32:15;;;;;;;;;;;;;;;;;;4954264;28;8746;-84
2023/07/19 05:34:40;;;;;;;;;;;;;;;;;;4954373;28;8632;-84
2023/07/19 05:37:06;;;;;;;;;;;;;;;;;;4954295;28;8603;-85
2023/07/19 05:39:33;;;;;;;;;;;;;;;;;;4954615;28;8972;-84
2023/07/19 05:42:02;;;;;;;;;;;;;;;;;;4954315;28;8594;-84
2023/07/19 05:44:27;;;;;;;;;;;;;;;;;;4953795;28;7901;-84
2023/07/19 05:46:53;;;;;;;;;;;;;;;;;;4954116;28;7429;-84
2023/07/19 05:49:18;;;;;;;;;;;;;;;;;;4954273;28;7518;-84
2023/07/19 05:51:45;;;;;;;;;;;;;;;;;;4953847;28;8495;-84
2023/07/19 05:54:10;;;;;;;;;;;;;;;;;;4954234;28;7231;-84
2023/07/19 05:56:36;;;;;;;;;;;;;;;;;;4954292;28;7122;-84
2023/07/19 05:59:02;;;;;;;;;;;;;;;;;;4954420;28;8511;-84
2023/07/19 06:01:27;;;;;;;;;;;;;;;;;;4954796;28;7306;-84
2023/07/19 06:03:52;;;;;;;;;;;;;;;;;;4949753;28;8634;-85
2023/07/19 06:06:18;;;;;;;;;;;;;;;;;;4951722;29;9389;-91
2023/07/19 06:08:43;;;;;;;;;;;;;;;;;;4965253;28;7367;-89
2023/07/19 06:11:09;;;;;;;;;;;;;;;;;;4968437;28;8860;-88
2023/07/19 06:13:34;;;;;;;;;;;;;;;;;;4968648;28;8519;-91
2023/07/19 06:16:00;;;;;;;;;;;;;;;;;;4968288;28;8540;-84
2023/07/19 06:18:25;;;;;;;;;;;;;;;;;;4967863;28;7499;-80
2023/07/19 06:20:51;;;;;;;;;;;;;;;;;;4958672;28;8508;-83
2023/07/19 06:23:16;;;;;;;;;;;;;;;;;;4956285;28;8592;-80
2023/07/19 06:25:44;;;;;;;;;;;;;;;;;;4957771;28;8584;-80
2023/07/19 06:28:10;;;;;;;;;;;;;;;;;;4957691;28;8488;-82
2023/07/19 06:30:36;;;;;;;;;;;;;;;;;;4957685;28;7333;-80
2023/07/19 06:33:02;;;;;;;;;;;;;;;;;;4942813;28;7275;-82
2023/07/19 06:35:28;;;;;;;;;;;;;;;;;;4938049;29;7117;-82
2023/07/19 06:37:53;;;;;;;;;;;;;;;;;;4938421;29;7335;-81
2023/07/19 06:40:19;;;;;;;;;;;;;;;;;;4938523;29;7321;-80
2023/07/19 06:42:44;;;;;;;;;;;;;;;;;;4937942;29;8388;-81
2023/07/19 06:45:10;;;;;;;;;;;;;;;;;;4937816;29;8492;-81
2023/07/19 06:47:36;;;;;;;;;;;;;;;;;;4937737;29;8821;-82
2023/07/19 06:50:01;;;;;;;;;;;;;;;;;;4938061;29;9048;-81
2023/07/19 06:52:27;;;;;;;;;;;;;;;;;;4939017;28;8563;-78
2023/07/19 06:54:52;;;;;;;;;;;;;;;;;;4947883;28;8633;-82
2023/07/19 06:57:21;;;;;;;;;;;;;;;;;;4937963;29;8681;-80
2023/07/19 06:59:49;;;;;;;;;;;;;;;;;;4937524;29;7434;-81
2023/07/19 07:02:18;;;;;;;;;;;;;;;;;;4941243;28;8541;-81
2023/07/19 07:04:44;;;;;;;;;;;;;;;;;;4953800;28;7250;-81
2023/07/19 07:07:10;;;;;;;;;;;;;;;;;;4953670;28;9482;-83
2023/07/19 07:09:36;;;;;;;;;;;;;;;;;;4953370;28;8867;-82
2023/07/19 07:12:02;;;;;;;;;;;;;;;;;;4953284;28;8970;-81
2023/07/19 07:14:28;;;;;;;;;;;;;;;;;;4953181;28;7163;-82
2023/07/19 07:16:53;;;;;;;;;;;;;;;;;;4953674;28;8888;-81
2023/07/19 07:19:19;;;;;;;;;;;;;;;;;;4953052;28;9325;-82
2023/07/19 07:21:44;;;;;;;;;;;;;;;;;;4953352;28;8585;-79
2023/07/19 07:24:10;;;;;;;;;;;;;;;;;;4953281;28;6998;-82
2023/07/19 07:26:35;;;;;;;;;;;;;;;;;;4952919;28;8544;-79
2023/07/19 07:29:01;;;;;;;;;;;;;;;;;;4953519;28;8884;-82
2023/07/19 07:31:27;;;;;;;;;;;;;;;;;;4953317;28;8649;-82
2023/07/19 07:33:52;;;;;;;;;;;;;;;;;;4952244;28;8493;-81
2023/07/19 07:36:18;;;;;;;;;;;;;;;;;;4952751;28;8450;-82
2023/07/19 07:38:43;;;;;;;;;;;;;;;;;;4953288;28;7264;-82
2023/07/19 07:41:12;;;;;;;;;;;;;;;;;;4953136;28;8694;-82
2023/07/19 07:43:38;;;;;;;;;;;;;;;;;;4952880;28;7275;-81
2023/07/19 07:46:03;;;;;;;;;;;;;;;;;;4953211;28;9010;-81
2023/07/19 07:48:30;;;;;;;;;;;;;;;;;;4954289;28;8501;-82
2023/07/19 07:50:56;;;;;;;;;;;;;;;;;;4937051;29;7169;-82
2023/07/19 07:53:21;;;;;;;;;;;;;;;;;;4937512;28;8527;-82
2023/07/19 07:55:50;;;;;;;;;;;;;;;;;;4952930;28;8821;-81
2023/07/19 07:58:16;;;;;;;;;;;;;;;;;;4959336;28;7235;-82
2023/07/19 08:00:42;;;;;;;;;;;;;;;;;;4946773;28;8541;-81
2023/07/19 08:03:08;;;;;;;;;;;;;;;;;;4943249;28;7274;-81
2023/07/19 08:05:34;;;;;;;;;;;;;;;;;;4963198;28;7378;-80
2023/07/19 08:08:00;;;;;;;;;;;;;;;;;;4956993;28;7020;-82
2023/07/19 08:10:25;;;;;;;;;;;;;;;;;;4955019;28;7144;-82
2023/07/19 08:12:50;;;;;;;;;;;;;;;;;;4961608;28;8544;-80
2023/07/19 08:15:16;;;;;;;;;;;;;;;;;;4952584;28;8538;-81
2023/07/19 08:17:41;;;;;;;;;;;;;;;;;;4947154;28;7106;-82
2023/07/19 08:20:09;;;;;;;;;;;;;;;;;;4952184;28;7230;-82
2023/07/19 08:22:36;;;;;;;;;;;;;;;;;;4956029;28;7191;-83
2023/07/19 08:25:01;;;;;;;;;;;;;;;;;;4953862;28;9108;-80
2023/07/19 08:27:27;;;;;;;;;;;;;;;;;;4937121;28;8569;-82
2023/07/19 08:29:52;;;;;;;;;;;;;;;;;;4955822;28;9407;-80
2023/07/19 08:32:18;;;;;;;;;;;;;;;;;;4966220;28;8616;-81
2023/07/19 08:34:45;;;;;;;;;;;;;;;;;;4962191;28;8786;-82
2023/07/19 08:37:11;;;;;;;;;;;;;;;;;;4968949;28;8562;-80
2023/07/19 08:39:36;;;;;;;;;;;;;;;;;;4943457;28;7118;-80
2023/07/19 08:42:02;;;;;;;;;;;;;;;;;;4941198;28;7214;-84
2023/07/19 08:44:28;;;;;;;;;;;;;;;;;;4964703;28;9048;-81
2023/07/19 08:46:54;;;;;;;;;;;;;;;;;;4966165;28;7291;-82
2023/07/19 08:49:20;;;;;;;;;;;;;;;;;;4950996;28;7367;-81
2023/07/19 08:51:47;;;;;;;;;;;;;;;;;;4953742;28;7277;-81
2023/07/19 08:54:12;;;;;;;;;;;;;;;;;;4950910;28;8589;-79
2023/07/19 08:56:38;;;;;;;;;;;;;;;;;;4951345;28;8522;-82
2023/07/19 08:59:07;;;;;;;;;;;;;;;;;;4950077;28;7273;-83
2023/07/19 09:01:33;;;;;;;;;;;;;;;;;;4969292;28;8504;-82
2023/07/19 09:03:58;;;;;;;;;;;;;;;;;;4970509;28;8091;-82
2023/07/19 09:06:27;;;;;;;;;;;;;;;;;;4971183;28;7241;-80
2023/07/19 09:08:55;;;;;;;;;;;;;;;;;;4970645;28;8482;-83
2023/07/19 09:11:24;;;;;;;;;;;;;;;;;;4971095;28;7169;-82
2023/07/19 09:13:56;;;;;;;;;;;;;;;;;;4969668;28;8626;-82
2023/07/19 09:16:32;;;;;;;;;;;;;;;;;;4951499;28;8626;-82
2023/07/19 09:18:59;;;;;;;;;;;;;;;;;;4934638;29;7245;-82
2023/07/19 09:21:40;;;;;;;;;;;;;;;;;;4952552;28;7361;-81
2023/07/19 09:24:06;;;;;;;;;;;;;;;;;;4970454;28;7467;-81
2023/07/19 09:26:44;;;;;;;;;;;;;;;;;;4970219;28;8518;-81
2023/07/19 09:29:11;;;;;;;;;;;;;;;;;;4936131;28;9169;-82
2023/07/19 09:32:03;;;;;;;;;;;;;;;;;;4934819;29;7302;-83
2023/07/19 09:34:37;;;;;;;;;;;;;;;;;;4933327;29;8871;-83
2023/07/19 09:37:04;;;;;;;;;;;;;;;;;;4935402;29;7367;-79
2023/07/19 09:39:30;;;;;;;;;;;;;;;;;;4934845;29;7285;-84
2023/07/19 09:41:57;;;;;;;;;;;;;;;;;;4934716;29;7156;-81
2023/07/19 09:44:23;;;;;;;;;;;;;;;;;;4935945;28;8812;-80
2023/07/19 09:46:49;;;;;;;;;;;;;;;;;;4969863;28;8922;-81
2023/07/19 09:49:14;;;;;;;;;;;;;;;;;;4969887;28;8592;-88
2023/07/19 09:51:41;;;;;;;;;;;;;;;;;;4962384;28;7309;-82
2023/07/19 09:54:08;;;;;;;;;;;;;;;;;;4969823;28;8829;-82
2023/07/19 09:56:34;;;;;;;;;;;;;;;;;;4969047;28;9159;-82
2023/07/19 09:59:01;;;;;;;;;;;;;;;;;;4969982;28;8943;-83
2023/07/19 10:01:27;;;;;;;;;;;;;;;;;;4969655;28;7294;-81
2023/07/19 10:03:53;;;;;;;;;;;;;;;;;;4970008;28;7266;-81
2023/07/19 10:06:18;;;;;;;;;;;;;;;;;;4969765;28;8591;-82
2023/07/19 10:08:44;;;;;;;;;;;;;;;;;;4968879;28;8550;-81
2023/07/19 10:11:23;;;;;;;;;;;;;;;;;;4968665;28;7174;-83
2023/07/19 10:13:58;;;;;;;;;;;;;;;;;;4968776;28;9262;-80
2023/07/19 10:16:24;;;;;;;;;;;;;;;;;;4968922;28;7191;-80
2023/07/19 10:19:10;;;;;;;;;;;;;;;;;;4953143;28;8545;-84
2023/07/19 10:21:36;;;;;;;;;;;;;;;;;;4950879;29;8579;-81
2023/07/19 10:24:06;;;;;;;;;;;;;;;;;;4953325;28;7274;-81
2023/07/19 10:26:36;;;;;;;;;;;;;;;;;;4952954;28;8593;-82
2023/07/19 10:29:03;;;;;;;;;;;;;;;;;;4953463;28;7267;-81
2023/07/19 10:31:29;;;;;;;;;;;;;;;;;;4953031;28;8526;-81
2023/07/19 10:33:55;;;;;;;;;;;;;;;;;;4953111;28;8846;-83
2023/07/19 10:36:21;;;;;;;;;;;;;;;;;;4953647;28;7257;-83
2023/07/19 10:38:46;;;;;;;;;;;;;;;;;;4953242;28;8507;-81
2023/07/19 10:41:13;;;;;;;;;;;;;;;;;;4944275;28;7293;-83
2023/07/19 10:43:39;;;;;;;;;;;;;;;;;;4950220;29;7183;-82
2023/07/19 10:46:05;;;;;;;;;;;;;;;;;;4950403;29;7433;-82
2023/07/19 10:48:32;;;;;;;;;;;;;;;;;;4950130;29;8568;-78
2023/07/19 10:50:59;;;;;;;;;;;;;;;;;;4955283;28;8935;-82
2023/07/19 10:53:26;;;;;;;;;;;;;;;;;;4961204;28;7395;-83
2023/07/19 10:55:56;;;;;;;;;;;;;;;;;;4968642;28;8827;-83
2023/07/19 10:58:24;;;;;;;;;;;;;;;;;;4969451;28;8736;-83
2023/07/19 11:00:51;;;;;;;;;;;;;;;;;;4969169;28;7571;-82
2023/07/19 11:03:17;;;;;;;;;;;;;;;;;;4969178;28;8565;-81
2023/07/19 11:05:47;;;;;;;;;;;;;;;;;;4969368;28;7164;-82
2023/07/19 11:08:23;;;;;;;;;;;;;;;;;;4970142;28;7245;-82
2023/07/19 11:10:50;;;;;;;;;;;;;;;;;;4972644;28;8597;-83
2023/07/19 11:13:20;;;;;;;;;;;;;;;;;;4964061;28;8549;-82
2023/07/19 11:15:53;;;;;;;;;;;;;;;;;;4959405;28;9023;-82
2023/07/19 11:18:27;;;;;;;;;;;;;;;;;;4936963;29;7347;-80
2023/07/19 11:20:53;;;;;;;;;;;;;;;;;;4937304;29;7255;-84
2023/07/19 11:23:19;;;;;;;;;;;;;;;;;;4937319;29;7243;-83
2023/07/19 11:25:44;;;;;;;;;;;;;;;;;;4937299;29;8589;-82
2023/07/19 11:28:10;;;;;;;;;;;;;;;;;;4941884;28;7505;-81
2023/07/19 11:30:40;;;;;;;;;;;;;;;;;;4969456;28;8540;-84
2023/07/19 11:33:06;;;;;;;;;;;;;;;;;;4972477;28;8878;-83
2023/07/19 11:35:32;;;;;;;;;;;;;;;;;;4972255;28;8740;-84
2023/07/19 11:37:59;;;;;;;;;;;;;;;;;;4971914;28;9402;-84
2023/07/19 11:40:25;;;;;;;;;;;;;;;;;;4972090;28;9720;-83
2023/07/19 11:42:57;;;;;;;;;;;;;;;;;;4972305;28;8553;-84
2023/07/19 11:45:28;;;;;;;;;;;;;;;;;;4972163;28;8857;-82
2023/07/19 11:48:01;;;;;;;;;;;;;;;;;;4971890;28;7299;-83
2023/07/19 11:50:27;;;;;;;;;;;;;;;;;;4968157;28;6954;-80
2023/07/19 11:52:55;;;;;;;;;;;;;;;;;;4963538;28;7562;-81
2023/07/19 11:55:22;;;;;;;;;;;;;;;;;;4955947;28;7177;-83
2023/07/19 11:57:51;;;;;;;;;;;;;;;;;;4971564;28;7577;-82
2023/07/19 12:00:17;;;;;;;;;;;;;;;;;;4971975;28;7280;-82
2023/07/19 12:02:44;;;;;;;;;;;;;;;;;;4971876;28;8879;-82
2023/07/19 12:05:11;;;;;;;;;;;;;;;;;;4971900;28;8545;-82
2023/07/19 12:07:36;;;;;;;;;;;;;;;;;;4971879;28;8772;-82
2023/07/19 12:10:04;;;;;;;;;;;;;;;;;;4971392;28;7357;-84
2023/07/19 12:12:30;;;;;;;;;;;;;;;;;;4970037;28;7197;-81
2023/07/19 12:14:55;;;;;;;;;;;;;;;;;;4961163;28;8725;-80
2023/07/19 12:17:21;;;;;;;;;;;;;;;;;;4941526;28;7440;-81
2023/07/19 12:19:46;;;;;;;;;;;;;;;;;;4971221;28;8712;-81
2023/07/19 12:22:12;;;;;;;;;;;;;;;;;;4968263;28;7432;-82
2023/07/19 12:24:37;;;;;;;;;;;;;;;;;;4935998;29;7292;-81
2023/07/19 12:27:03;;;;;;;;;;;;;;;;;;4937635;28;8873;-83
2023/07/19 12:29:29;;;;;;;;;;;;;;;;;;4971026;28;8494;-83
2023/07/19 12:31:54;;;;;;;;;;;;;;;;;;4971541;28;7350;-83
2023/07/19 12:34:20;;;;;;;;;;;;;;;;;;4971233;28;9007;-83
2023/07/19 12:36:50;;;;;;;;;;;;;;;;;;4957905;28;7284;-80
2023/07/19 12:39:18;;;;;;;;;;;;;;;;;;4935587;29;9506;-81
2023/07/19 12:41:44;;;;;;;;;;;;;;;;;;4936046;29;8664;-83
2023/07/19 12:44:10;;;;;;;;;;;;;;;;;;4935963;29;8819;-83
2023/07/19 12:46:36;;;;;;;;;;;;;;;;;;4935715;29;8802;-81
2023/07/19 12:49:01;;;;;;;;;;;;;;;;;;4938647;28;8969;-84
2023/07/19 12:51:28;;;;;;;;;;;;;;;;;;4947907;28;7372;-81
2023/07/19 12:53:55;;;;;;;;;;;;;;;;;;4934922;29;7124;-81
2023/07/19 12:56:21;;;;;;;;;;;;;;;;;;4934795;28;7488;-81
2023/07/19 12:58:46;;;;;;;;;;;;;;;;;;4954567;28;8641;-82
2023/07/19 13:01:14;;;;;;;;;;;;;;;;;;4960440;28;9173;-79
2023/07/19 13:03:40;;;;;;;;;;;;;;;;;;4953947;28;8554;-79
2023/07/19 13:06:06;;;;;;;;;;;;;;;;;;4947978;28;7289;-82
2023/07/19 13:08:31;;;;;;;;;;;;;;;;;;4942073;28;9036;-84
2023/07/19 13:10:57;;;;;;;;;;;;;;;;;;4954755;28;7511;-82
2023/07/19 13:13:23;;;;;;;;;;;;;;;;;;4942990;28;7166;-82
2023/07/19 13:15:48;;;;;;;;;;;;;;;;;;4957513;28;8856;-80
2023/07/19 13:18:14;;;;;;;;;;;;;;;;;;4949642;28;8539;-81
2023/07/19 13:20:40;;;;;;;;;;;;;;;;;;4952576;28;7532;-82
2023/07/19 13:23:05;;;;;;;;;;;;;;;;;;4953819;28;7370;-83
2023/07/19 13:25:31;;;;;;;;;;;;;;;;;;4939478;28;8618;-82
2023/07/19 13:27:57;;;;;;;;;;;;;;;;;;4969961;28;7028;-83
2023/07/19 13:30:22;;;;;;;;;;;;;;;;;;4969592;28;8584;-79
2023/07/19 13:32:48;;;;;;;;;;;;;;;;;;4969481;28;7257;-80
2023/07/19 13:35:13;;;;;;;;;;;;;;;;;;4949375;28;8673;-82
2023/07/19 13:37:39;;;;;;;;;;;;;;;;;;4957954;28;7489;-79
2023/07/19 13:40:07;;;;;;;;;;;;;;;;;;4958052;28;8786;-81
2023/07/19 13:42:35;;;;;;;;;;;;;;;;;;4940112;28;8520;-78
2023/07/19 13:45:01;;;;;;;;;;;;;;;;;;4951045;28;9135;-83
2023/07/19 13:47:28;;;;;;;;;;;;;;;;;;4962344;28;8925;-81
2023/07/19 13:49:53;;;;;;;;;;;;;;;;;;4934975;28;8555;-84
2023/07/19 13:52:19;;;;;;;;;;;;;;;;;;4949797;28;7334;-87
2023/07/19 13:54:44;;;;;;;;;;;;;;;;;;4950751;28;8829;-83
2023/07/19 13:57:09;;;;;;;;;;;;;;;;;;4950678;28;9017;-86
2023/07/19 13:59:35;;;;;;;;;;;;;;;;;;4950873;28;8743;-85
2023/07/19 14:02:01;;;;;;;;;;;;;;;;;;4962086;28;8851;-83
2023/07/19 14:04:27;;;;;;;;;;;;;;;;;;4953165;28;7303;-85
2023/07/19 14:06:53;;;;;;;;;;;;;;;;;;4953208;28;7290;-85
2023/07/19 14:09:18;;;;;;;;;;;;;;;;;;4950997;28;7268;-85
2023/07/19 14:11:44;;;;;;;;;;;;;;;;;;4949956;28;8502;-84
2023/07/19 14:14:09;;;;;;;;;;;;;;;;;;4950409;28;8545;-81
2023/07/19 14:16:35;;;;;;;;;;;;;;;;;;4963197;28;7226;-84
2023/07/19 14:19:00;;;;;;;;;;;;;;;;;;4955466;28;8707;-83
2023/07/19 14:21:26;;;;;;;;;;;;;;;;;;4953062;28;8536;-83
2023/07/19 14:23:51;;;;;;;;;;;;;;;;;;4950159;28;8993;-82
2023/07/19 14:26:17;;;;;;;;;;;;;;;;;;4933933;29;8891;-83
2023/07/19 14:28:43;;;;;;;;;;;;;;;;;;4949950;28;8972;-84
2023/07/19 14:31:08;;;;;;;;;;;;;;;;;;4956980;28;8534;-85
2023/07/19 14:33:34;;;;;;;;;;;;;;;;;;4950834;28;8529;-84
2023/07/19 14:35:59;;;;;;;;;;;;;;;;;;4953634;28;8558;-85
2023/07/19 14:38:28;;;;;;;;;;;;;;;;;;4965132;28;8492;-82
2023/07/19 14:40:54;;;;;;;;;;;;;;;;;;4951978;28;8918;-85
2023/07/19 14:43:23;;;;;;;;;;;;;;;;;;4954464;28;8866;-85
2023/07/19 14:45:48;;;;;;;;;;;;;;;;;;4956758;28;7288;-84
2023/07/19 14:48:14;;;;;;;;;;;;;;;;;;4954410;28;8601;-82
2023/07/19 14:50:39;;;;;;;;;;;;;;;;;;4971884;28;8553;-85
2023/07/19 14:53:05;;;;;;;;;;;;;;;;;;4972952;28;7154;-83
2023/07/19 14:55:30;;;;;;;;;;;;;;;;;;4970476;28;8561;-82
2023/07/19 14:57:56;;;;;;;;;;;;;;;;;;4953839;28;7381;-79
2023/07/19 15:00:21;;;;;;;;;;;;;;;;;;4973119;28;8723;-80
2023/07/19 15:02:47;;;;;;;;;;;;;;;;;;4972599;28;7347;-81
2023/07/19 15:05:14;;;;;;;;;;;;;;;;;;4972692;28;8827;-81
2023/07/19 15:07:43;;;;;;;;;;;;;;;;;;4972520;28;7313;-80
2023/07/19 15:10:09;;;;;;;;;;;;;;;;;;4972717;28;9147;-78
2023/07/19 15:12:36;;;;;;;;;;;;;;;;;;4972594;28;8577;-78
2023/07/19 15:15:02;;;;;;;;;;;;;;;;;;4972186;28;7267;-78
2023/07/19 15:17:28;;;;;;;;;;;;;;;;;;4972608;28;8811;-79
2023/07/19 15:19:53;;;;;;;;;;;;;;;;;;4964632;28;7432;-80
2023/07/19 15:22:19;;;;;;;;;;;;;;;;;;4947622;28;7263;-87
2023/07/19 15:24:45;;;;;;;;;;;;;;;;;;4959914;28;8524;-79
2023/07/19 15:27:11;;;;;;;;;;;;;;;;;;4946344;28;7196;-80
2023/07/19 15:29:36;;;;;;;;;;;;;;;;;;4972571;28;8838;-80
2023/07/19 15:32:02;;;;;;;;;;;;;;;;;;4969466;28;7282;-80
2023/07/19 15:34:27;;;;;;;;;;;;;;;;;;4971949;28;8526;-78
2023/07/19 15:36:53;;;;;;;;;;;;;;;;;;4971636;28;8441;-80
2023/07/19 15:39:19;;;;;;;;;;;;;;;;;;4972366;28;7275;-79
2023/07/19 15:41:44;;;;;;;;;;;;;;;;;;4971876;28;9224;-81
2023/07/19 15:44:11;;;;;;;;;;;;;;;;;;4971892;28;8928;-83
2023/07/19 15:46:38;;;;;;;;;;;;;;;;;;4971639;28;7294;-82
2023/07/19 15:49:03;;;;;;;;;;;;;;;;;;4971758;28;7486;-83
2023/07/19 15:51:30;;;;;;;;;;;;;;;;;;4971822;28;7143;-80
2023/07/19 15:53:55;;;;;;;;;;;;;;;;;;4971185;28;7279;-81
2023/07/19 15:56:21;;;;;;;;;;;;;;;;;;4971948;28;8529;-83
2023/07/19 15:58:48;;;;;;;;;;;;;;;;;;4972289;28;7563;-84
2023/07/19 16:01:14;;;;;;;;;;;;;;;;;;4972067;28;8587;-82
2023/07/19 16:03:40;;;;;;;;;;;;;;;;;;4972050;28;8532;-82
2023/07/19 16:06:07;;;;;;;;;;;;;;;;;;4972219;28;9220;-81
2023/07/19 16:08:34;;;;;;;;;;;;;;;;;;4968941;28;8932;-84
2023/07/19 16:11:03;;;;;;;;;;;;;;;;;;4955979;28;8583;-85
2023/07/19 16:13:29;;;;;;;;;;;;;;;;;;4942784;28;7260;-82
2023/07/19 16:15:54;;;;;;;;;;;;;;;;;;4959349;28;8941;-85
2023/07/19 16:18:20;;;;;;;;;;;;;;;;;;4949860;28;8755;-83
2023/07/19 16:20:46;;;;;;;;;;;;;;;;;;4936767;28;8845;-84
2023/07/19 16:23:13;;;;;;;;;;;;;;;;;;4964230;28;9015;-85
2023/07/19 16:25:38;;;;;;;;;;;;;;;;;;4971907;28;8201;-83
2023/07/19 16:28:04;;;;;;;;;;;;;;;;;;4969580;28;8515;-83
2023/07/19 16:30:30;;;;;;;;;;;;;;;;;;4971442;28;8540;-82
2023/07/19 16:32:56;;;;;;;;;;;;;;;;;;4969407;28;8575;-83
2023/07/19 16:35:21;;;;;;;;;;;;;;;;;;4971360;28;8518;-84
2023/07/19 16:37:47;;;;;;;;;;;;;;;;;;4971586;28;6937;-82
2023/07/19 16:40:13;;;;;;;;;;;;;;;;;;4971423;28;7359;-82
2023/07/19 16:42:39;;;;;;;;;;;;;;;;;;4965923;28;8833;-84
2023/07/19 16:45:06;;;;;;;;;;;;;;;;;;4962828;28;8029;-83
2023/07/19 16:47:34;;;;;;;;;;;;;;;;;;4971119;28;8924;-83
2023/07/19 16:50:00;;;;;;;;;;;;;;;;;;4971660;28;8265;-84
2023/07/19 16:52:25;;;;;;;;;;;;;;;;;;4971194;28;8611;-81
2023/07/19 16:54:51;;;;;;;;;;;;;;;;;;4970609;28;8748;-82
2023/07/19 16:57:16;;;;;;;;;;;;;;;;;;4970732;28;8563;-80